MSC Orchestra — 3EJF3 — position and weather

sailwx.info

Track history (hours):
 
Tides and Currents Weather Stations Pressure Air Temp Water Temp Dewpoint Dewpoint Depression Visibility Wind Speed Wind Dir Waves Ship Positions

MSC Orchestra

Last reported at 2014-Oct-23 08:25 UTC. Time now 2014-Oct-25 02:51 UTC.
Position N 36°26' E 022°35'.

Length 294 m; draft 7.8 m.

Type: Ship. MMSI: 372497000.

Date/timePositionNaut miles runAvg speedWind from/ knotsBaromVisibWave heightAir tempDewpointWater temp
2014-Oct-23 08:25N 36°26' E 022°35'41 7.8
2014-Oct-23 03:05N 36°38' E 023°24'1019.1
2014-Oct-23 02:33N 36°47' E 023°31'2519.2
2014-Oct-23 01:13N 37°09' E 023°48'1719.2
2014-Oct-23 00:21N 37°23' E 023°59'1519.0
2014-Oct-22 23:33N 37°36' E 024°09'2018.9
2014-Oct-22 22:31N 37°50' E 024°26'72 3.1
2014-Oct-21 23:31N 38°58' E 023°56'1413.1
2014-Oct-21 22:27N 39°02' E 024°14'2613.4
2014-Oct-21 20:32N 39°16' E 024°42'1313.5
2014-Oct-21 19:33N 39°23' E 024°56'1313.4
2014-Oct-21 18:33N 39°31' E 025°10'1413.9
2014-Oct-21 17:33N 39°40' E 025°24'1615.5
2014-Oct-21 16:33N 39°50' E 025°39'1717.6
2014-Oct-21 15:33N 39°60' E 025°58'4213.8
2014-Oct-21 12:32N 40°24' E 026°42'5216.2
2014-Oct-21 09:18N 40°48' E 027°44'4516.1
2014-Oct-21 06:29N 40°55' E 028°43'1414.7
2014-Oct-21 05:33N 40°60' E 028°60'  
2014-Oct-18 14:13N 41°02' E 028°59'0 0.0
2014-Oct-18 13:19N 41°02' E 028°59'0 0.0
2014-Oct-18 10:30N 41°02' E 028°59'0 0.0
2014-Oct-18 09:11N 41°02' E 028°59'14210.1
2014-Oct-17 19:13N 40°01' E 026°10'1319.6
2014-Oct-17 18:33N 39°54' E 025°56'2321.8
2014-Oct-17 17:31N 39°32' E 025°49'54 3.3
2014-Oct-17 01:18N 38°39' E 025°41'2620.8
2014-Oct-17 00:04N 38°25' E 025°13'4121.2
2014-Oct-16 22:09N 37°56' E 024°37'1321.7
2014-Oct-16 21:33N 37°44' E 024°31'2221.4
2014-Oct-16 20:33N 37°25' E 024°17'2121.5
2014-Oct-16 19:33N 37°09' E 024°01'2121.3
2014-Oct-16 18:33N 36°52' E 023°44'2221.7
2014-Oct-16 17:33N 36°35' E 023°27'2519.6
2014-Oct-16 16:16N 36°25' E 022°58'1622.3
2014-Oct-16 15:33N 36°22' E 022°39'  
Track history (hours):
 
Tides and Currents Weather Stations Pressure Air Temp Water Temp Dewpoint Dewpoint Depression Visibility Wind Speed Wind Dir Waves Ship Positions

MSC Orchestra

Last reported at 2014-Oct-23 08:25 UTC. Time now 2014-Oct-25 02:51 UTC.
Position N 36°26' E 022°35'.

Length 294 m; draft 7.8 m.

Type: Ship. MMSI: 372497000.

Date/timePositionNaut miles runAvg speedWind from/ knotsBaromVisibWave heightAir tempDewpointWater temp
2014-Oct-23 08:25N 36°26' E 022°35'41 7.8
2014-Oct-23 03:05N 36°38' E 023°24'1019.1
2014-Oct-23 02:33N 36°47' E 023°31'2519.2
2014-Oct-23 01:13N 37°09' E 023°48'1719.2
2014-Oct-23 00:21N 37°23' E 023°59'1519.0
2014-Oct-22 23:33N 37°36' E 024°09'2018.9
2014-Oct-22 22:31N 37°50' E 024°26'72 3.1
2014-Oct-21 23:31N 38°58' E 023°56'1413.1
2014-Oct-21 22:27N 39°02' E 024°14'2613.4
2014-Oct-21 20:32N 39°16' E 024°42'1313.5
2014-Oct-21 19:33N 39°23' E 024°56'1313.4
2014-Oct-21 18:33N 39°31' E 025°10'1413.9
2014-Oct-21 17:33N 39°40' E 025°24'1615.5
2014-Oct-21 16:33N 39°50' E 025°39'1717.6
2014-Oct-21 15:33N 39°60' E 025°58'4213.8
2014-Oct-21 12:32N 40°24' E 026°42'5216.2
2014-Oct-21 09:18N 40°48' E 027°44'4516.1
2014-Oct-21 06:29N 40°55' E 028°43'1414.7
2014-Oct-21 05:33N 40°60' E 028°60'  
2014-Oct-18 14:13N 41°02' E 028°59'0 0.0
2014-Oct-18 13:19N 41°02' E 028°59'0 0.0
2014-Oct-18 10:30N 41°02' E 028°59'0 0.0
2014-Oct-18 09:11N 41°02' E 028°59'14210.1
2014-Oct-17 19:13N 40°01' E 026°10'1319.6
2014-Oct-17 18:33N 39°54' E 025°56'2321.8
2014-Oct-17 17:31N 39°32' E 025°49'54 3.3
2014-Oct-17 01:18N 38°39' E 025°41'2620.8
2014-Oct-17 00:04N 38°25' E 025°13'4121.2
2014-Oct-16 22:09N 37°56' E 024°37'1321.7
2014-Oct-16 21:33N 37°44' E 024°31'2221.4
2014-Oct-16 20:33N 37°25' E 024°17'2121.5
2014-Oct-16 19:33N 37°09' E 024°01'2121.3
2014-Oct-16 18:33N 36°52' E 023°44'2221.7
2014-Oct-16 17:33N 36°35' E 023°27'2519.6
2014-Oct-16 16:16N 36°25' E 022°58'1622.3
2014-Oct-16 15:33N 36°22' E 022°39'  

Dump ship's entire track history